New River, North Carolina
Current Conditions -  °F | °C
As of 10:56 AM on Sunday 25 Jan 2015 (Local Time) from KNCA Reporting Station
Clear Clear  
Wind Chill: 46°   Ceiling: Unl
Heat Index: 48°   Visibility: 10mi
Dew Point: 32°   Wind: 5mph
Humidity: 54%   Direction: 330°NNW
Pressure: 29.97"   Gusts: NA
Location:  34.7°N, 77.43°W
Report Text: KNCA 251556Z AUTO 33004KT 10SM CLR 09/00 A2997 RMK AO2 SLP152 T00890000
Loading
Personal Weather Stations






























Interactive Weather Map New forecast layout! Learn more

10-Day Weather Forecast

Advertisements
Track Severe Weather on mobile